Time;durP1;ratioP1;P1;durP2;ratioP2;P2;SDS_P1;SDS_P2;PMS_P1;PMS_P2;Temp;Humidity;BMP_temperature;BMP_pressure;BME280_temperature;BME280_humidity;BME280_pressure;Samples;Min_cycle;Max_cycle;Signal;HPM_P1;HPM_P2
2022/05/29 00:02:07;;;;;;;1999.90;999.90;;;9.40;99.90;;;;;;5059642;28;20197;-73
2022/05/29 00:04:33;;;;;;;1999.90;999.90;;;9.40;99.90;;;;;;5077425;28;20450;-74
2022/05/29 00:07:00;;;;;;;1999.90;999.90;;;9.40;99.90;;;;;;5059510;28;20436;-73
2022/05/29 00:09:37;;;;;;;1999.90;999.90;;;9.40;99.90;;;;;;5077213;28;20178;-74
2022/05/29 00:12:04;;;;;;;1999.90;999.90;;;9.40;99.90;;;;;;5059683;28;20429;-74
2022/05/29 00:14:30;;;;;;;1999.90;999.90;;;9.50;99.90;;;;;;5059105;28;20448;-74
2022/05/29 00:16:56;;;;;;;1999.90;999.90;;;9.50;99.90;;;;;;5058997;28;21000;-74
2022/05/29 00:19:22;;;;;;;1999.90;999.90;;;9.30;99.90;;;;;;5077663;28;20448;-74
2022/05/29 00:21:49;;;;;;;1999.90;999.90;;;9.30;99.90;;;;;;5078076;28;20477;-74
2022/05/29 00:24:14;;;;;;;1999.90;999.90;;;9.40;99.90;;;;;;5078568;28;20408;-74
2022/05/29 00:26:41;;;;;;;1999.90;999.90;;;9.20;99.90;;;;;;5059909;28;20444;-74
2022/05/29 00:29:08;;;;;;;1999.90;999.90;;;9.10;99.90;;;;;;5060459;28;20476;-75
2022/05/29 00:31:34;;;;;;;1999.90;999.90;;;9.00;99.90;;;;;;5059708;28;20476;-73
2022/05/29 00:34:01;;;;;;;1999.90;999.90;;;9.00;99.90;;;;;;5060320;28;20499;-74
2022/05/29 00:36:32;;;;;;;1999.90;999.90;;;9.00;99.90;;;;;;5060902;28;20446;-73
2022/05/29 00:38:57;;;;;;;1999.90;999.90;;;9.00;99.90;;;;;;5060430;28;20451;-73
2022/05/29 00:41:31;;;;;;;1999.90;999.90;;;9.00;99.90;;;;;;5079188;28;20400;-73
2022/05/29 00:44:16;;;;;;;1999.90;999.90;;;9.00;99.90;;;;;;5077832;28;20228;-74
2022/05/29 00:47:01;;;;;;;1999.90;999.90;;;8.90;99.90;;;;;;5077275;28;20424;-74
2022/05/29 00:49:31;;;;;;;1999.90;999.90;;;9.00;99.90;;;;;;5078222;28;20415;-74
2022/05/29 00:52:08;;;;;;;1999.90;999.90;;;9.00;99.90;;;;;;5076918;28;20889;-74
2022/05/29 00:54:42;;;;;;;1999.90;999.90;;;9.00;99.90;;;;;;5075988;28;20884;-74
2022/05/29 00:57:14;;;;;;;1999.90;999.90;;;9.10;99.90;;;;;;5077203;28;20462;-73
2022/05/29 00:59:40;;;;;;;1999.90;999.90;;;9.10;99.90;;;;;;5077719;28;20454;-74
2022/05/29 01:02:05;;;;;;;1999.90;999.90;;;9.10;99.90;;;;;;5077226;28;20452;-74
2022/05/29 01:04:36;;;;;;;1999.90;999.90;;;9.00;99.90;;;;;;5076950;28;20419;-74
2022/05/29 01:07:06;;;;;;;1999.90;999.90;;;9.00;99.90;;;;;;5077380;28;20197;-73
2022/05/29 01:09:36;;;;;;;1999.90;999.90;;;9.00;99.90;;;;;;5077053;28;20438;-73
2022/05/29 01:12:43;;;;;;;1999.90;999.90;;;9.00;99.90;;;;;;5077326;28;20423;-74
2022/05/29 01:15:24;;;;;;;1999.90;999.90;;;9.00;99.90;;;;;;4976072;28;20423;-73
2022/05/29 01:17:55;;;;;;;1999.90;999.90;;;9.00;99.90;;;;;;5067439;28;20486;-74
2022/05/29 01:20:44;;;;;;;1999.90;999.90;;;9.10;99.90;;;;;;5077136;28;20418;-74
2022/05/29 01:23:13;;;;;;;1999.90;999.90;;;9.10;99.90;;;;;;5077363;28;20493;-74
2022/05/29 01:26:14;;;;;;;1999.90;999.90;;;9.10;99.90;;;;;;5076982;28;20412;-73
2022/05/29 01:29:02;;;;;;;1999.90;999.90;;;8.90;99.90;;;;;;5077493;28;20807;-74
2022/05/29 01:31:49;;;;;;;1999.90;999.90;;;9.00;99.90;;;;;;5077225;28;20397;-74
2022/05/29 01:34:46;;;;;;;1999.90;999.90;;;8.90;99.90;;;;;;5076771;28;20392;-73
2022/05/29 01:37:16;;;;;;;1999.90;999.90;;;8.90;99.90;;;;;;5077514;28;20453;-74
2022/05/29 01:39:44;;;;;;;1999.90;999.90;;;8.80;99.90;;;;;;5076624;28;20482;-74
2022/05/29 01:42:21;;;;;;;1999.90;999.90;;;8.80;99.90;;;;;;5076541;28;20483;-74
2022/05/29 01:45:12;;;;;;;1999.90;999.90;;;8.80;99.90;;;;;;5076475;28;20784;-72
2022/05/29 01:47:53;;;;;;;1999.90;999.90;;;8.80;99.90;;;;;;5076996;28;20507;-74
2022/05/29 01:50:27;;;;;;;1999.90;999.90;;;8.70;99.90;;;;;;5077022;28;20494;-73
2022/05/29 01:53:00;;;;;;;1999.90;999.90;;;8.70;99.90;;;;;;5076436;28;20442;-74
2022/05/29 01:55:49;;;;;;;1999.90;999.90;;;8.60;99.90;;;;;;5076128;28;20415;-73
2022/05/29 01:58:20;;;;;;;1999.90;999.90;;;8.60;99.90;;;;;;5076441;28;20426;-74
2022/05/29 02:00:49;;;;;;;1999.90;999.90;;;8.60;99.90;;;;;;5077426;28;20412;-73
2022/05/29 02:03:19;;;;;;;1999.90;999.90;;;8.60;99.90;;;;;;5072400;28;20449;-74
2022/05/29 02:05:57;;;;;;;1999.90;999.90;;;8.60;99.90;;;;;;5072169;28;20963;-74
2022/05/29 02:09:01;;;;;;;1999.90;999.90;;;8.50;99.90;;;;;;5072427;28;20413;-74
2022/05/29 02:11:28;;;;;;;1999.90;999.90;;;8.60;99.90;;;;;;5072359;28;20451;-73
2022/05/29 02:14:17;;;;;;;1999.90;999.90;;;8.60;99.90;;;;;;5072688;28;20411;-74
2022/05/29 02:16:58;;;;;;;1999.90;999.90;;;8.60;99.90;;;;;;5072279;28;21116;-74
2022/05/29 02:19:58;;;;;;;1999.90;999.90;;;8.50;99.90;;;;;;5072223;28;20581;-73
2022/05/29 02:22:27;;;;;;;1999.90;999.90;;;8.60;99.90;;;;;;5018910;28;20463;-74
2022/05/29 02:25:10;;;;;;;1999.90;999.90;;;8.60;99.90;;;;;;5071880;28;20821;-74
2022/05/29 02:27:39;;;;;;;1999.90;999.90;;;8.60;99.90;;;;;;5071973;28;20439;-74
2022/05/29 02:30:05;;;;;;;1999.90;999.90;;;8.60;99.90;;;;;;5072086;28;20418;-74
2022/05/29 02:32:49;;;;;;;1999.90;999.90;;;8.60;99.90;;;;;;5072072;28;20406;-74
2022/05/29 02:35:22;;;;;;;1999.90;999.90;;;8.60;99.90;;;;;;5071816;28;20415;-74
2022/05/29 02:38:09;;;;;;;1999.90;999.90;;;8.60;99.90;;;;;;5072053;28;20466;-74
2022/05/29 02:40:35;;;;;;;1999.90;999.90;;;8.60;99.90;;;;;;5072047;28;20449;-74
2022/05/29 02:43:00;;;;;;;1999.90;999.90;;;8.50;99.90;;;;;;5071845;28;20878;-74
2022/05/29 02:45:44;;;;;;;1999.90;999.90;;;8.50;99.90;;;;;;5071752;28;20167;-74
2022/05/29 02:48:20;;;;;;;1999.90;999.90;;;8.50;99.90;;;;;;5071796;28;20654;-74
2022/05/29 02:51:06;;;;;;;1999.90;999.90;;;8.40;99.90;;;;;;5071841;28;20403;-74
2022/05/29 02:53:33;;;;;;;1999.90;999.90;;;8.40;99.90;;;;;;5071930;28;20398;-74
2022/05/29 02:56:04;;;;;;;1999.90;999.90;;;8.40;99.90;;;;;;5072113;28;20446;-74
2022/05/29 02:58:32;;;;;;;1999.90;999.90;;;8.40;99.90;;;;;;5076091;28;20776;-74
2022/05/29 03:01:10;;;;;;;1999.90;999.90;;;8.40;99.90;;;;;;5057319;28;20955;-74
2022/05/29 03:04:10;;;;;;;1999.90;999.90;;;8.40;99.90;;;;;;5057806;28;20978;-74
2022/05/29 03:07:04;;;;;;;1999.90;999.90;;;8.40;99.90;;;;;;5058273;28;20627;-74
2022/05/29 03:09:35;;;;;;;1999.90;999.90;;;8.30;99.90;;;;;;5058416;28;20416;-74
2022/05/29 03:12:08;;;;;;;1999.90;999.90;;;8.40;99.90;;;;;;5062761;28;20407;-73
2022/05/29 03:15:01;;;;;;;1999.90;999.90;;;8.50;99.90;;;;;;5062022;28;20884;-74
2022/05/29 03:17:43;;;;;;;1999.90;999.90;;;8.40;99.90;;;;;;5062180;28;20438;-73
2022/05/29 03:20:49;;;;;;;1999.90;999.90;;;8.40;99.90;;;;;;5062237;28;20831;-74
2022/05/29 03:23:27;;;;;;;1999.90;999.90;;;8.50;99.90;;;;;;5039646;28;20736;-74
2022/05/29 03:26:00;;;;;;;1999.90;999.90;;;8.60;99.90;;;;;;5061093;28;20415;-73
2022/05/29 03:28:52;;;;;;;1999.90;999.90;;;8.60;99.90;;;;;;5065769;23;20519;-74
2022/05/29 03:31:24;;;;;;;1999.90;999.90;;;8.70;99.90;;;;;;5035500;28;20555;-75
2022/05/29 03:33:50;;;;;;;1999.90;999.90;;;8.80;99.90;;;;;;5035373;28;20764;-75
2022/05/29 03:36:16;;;;;;;1999.90;999.90;;;8.70;99.90;;;;;;5035184;28;20445;-75
2022/05/29 03:38:44;;;;;;;1999.90;999.90;;;8.80;99.90;;;;;;5035255;28;20417;-74
2022/05/29 03:41:21;;;;;;;1999.90;999.90;;;8.80;99.90;;;;;;5035363;28;20405;-74
2022/05/29 03:43:46;;;;;;;1999.90;999.90;;;8.80;99.90;;;;;;5035143;28;20457;-74
2022/05/29 03:46:12;;;;;;;1999.90;999.90;;;8.90;99.90;;;;;;5034892;28;20408;-74
2022/05/29 03:48:37;;;;;;;1999.90;999.90;;;9.00;99.90;;;;;;5035116;28;20185;-74
2022/05/29 03:51:07;;;;;;;1999.90;999.90;;;9.00;99.90;;;;;;5035140;28;20199;-74
2022/05/29 03:53:33;;;;;;;1999.90;999.90;;;9.10;99.90;;;;;;5035542;28;20178;-74
2022/05/29 03:55:59;;;;;;;1999.90;999.90;;;9.10;99.90;;;;;;5034746;28;20463;-74
2022/05/29 03:58:25;;;;;;;1999.90;999.90;;;9.30;99.90;;;;;;5035130;28;20463;-74
2022/05/29 04:00:50;;;;;;;1999.90;999.90;;;9.30;99.90;;;;;;5034944;28;20174;-75
2022/05/29 04:03:16;;;;;;;1999.90;999.90;;;9.30;99.90;;;;;;5034930;28;20569;-75
2022/05/29 04:05:42;;;;;;;1999.90;999.90;;;9.20;99.90;;;;;;5034684;28;20518;-74
2022/05/29 04:13:41;;;;;;;1999.90;999.90;;;9.20;99.90;;;;;;5034824;28;20400;-74
2022/05/29 04:16:07;;;;;;;1999.90;999.90;;;9.30;99.90;;;;;;5034438;28;20405;-74
2022/05/29 04:18:33;;;;;;;1999.90;999.90;;;9.30;99.90;;;;;;5034595;28;20487;-74
2022/05/29 04:20:59;;;;;;;1999.90;999.90;;;9.20;99.90;;;;;;5034151;28;20406;-74
2022/05/29 04:23:24;;;;;;;1999.90;999.90;;;9.20;99.90;;;;;;5034452;28;20548;-74
2022/05/29 04:25:50;;;;;;;1999.90;999.90;;;9.30;99.90;;;;;;5034166;28;20174;-74
2022/05/29 04:28:17;;;;;;;1999.90;999.90;;;9.30;99.90;;;;;;5034496;28;20575;-74
2022/05/29 04:30:43;;;;;;;1999.90;999.90;;;9.40;99.90;;;;;;5034368;28;20416;-74
2022/05/29 04:33:09;;;;;;;1999.90;999.90;;;9.40;99.90;;;;;;5034336;28;20414;-73
2022/05/29 04:35:43;;;;;;;1999.90;999.90;;;9.40;99.90;;;;;;5034094;28;20413;-74
2022/05/29 04:38:10;;;;;;;1999.90;999.90;;;9.40;99.90;;;;;;5034191;28;20448;-74
2022/05/29 04:40:38;;;;;;;1999.90;999.90;;;9.50;99.90;;;;;;5034218;28;20495;-74
2022/05/29 04:43:03;;;;;;;1999.90;999.90;;;9.60;99.90;;;;;;5034082;28;20457;-74
2022/05/29 04:45:29;;;;;;;1999.90;999.90;;;9.60;99.90;;;;;;5033796;28;20420;-74
2022/05/29 04:47:55;;;;;;;1999.90;999.90;;;9.60;99.90;;;;;;5034009;28;20187;-74
2022/05/29 04:50:21;;;;;;;1999.90;999.90;;;9.70;99.90;;;;;;5034050;28;20490;-74
2022/05/29 04:52:46;;;;;;;1999.90;999.90;;;9.70;99.90;;;;;;5033949;28;20178;-74
2022/05/29 04:55:12;;;;;;;1999.90;999.90;;;9.70;99.90;;;;;;5033687;28;20170;-74
2022/05/29 04:57:38;;;;;;;1999.90;999.90;;;9.70;99.90;;;;;;5033802;28;20192;-74
2022/05/29 05:00:05;;;;;;;1999.90;999.90;;;9.80;99.90;;;;;;5033776;28;20198;-74
2022/05/29 05:02:30;;;;;;;1999.90;999.90;;;9.90;99.90;;;;;;5033747;28;20256;-74
2022/05/29 05:04:56;;;;;;;1999.90;999.90;;;9.90;99.90;;;;;;5033450;28;20410;-74
2022/05/29 05:07:22;;;;;;;1999.90;999.90;;;10.00;99.90;;;;;;5033588;28;20241;-74
2022/05/29 05:09:48;;;;;;;1999.90;999.90;;;10.00;99.90;;;;;;5034044;28;20244;-74
2022/05/29 05:12:14;;;;;;;1999.90;999.90;;;10.10;99.90;;;;;;5033697;28;20569;-74
2022/05/29 05:14:40;;;;;;;1999.90;999.90;;;10.10;99.90;;;;;;5033392;28;20884;-75
2022/05/29 05:17:06;;;;;;;1999.90;999.90;;;10.10;99.90;;;;;;5033549;28;20453;-75
2022/05/29 05:19:31;;;;;;;1999.90;999.90;;;10.20;99.90;;;;;;5033642;28;20421;-74
2022/05/29 05:22:00;;;;;;;1999.90;999.90;;;10.20;99.90;;;;;;5033318;28;20192;-74
2022/05/29 05:24:27;;;;;;;1999.90;999.90;;;10.30;99.90;;;;;;5033157;28;20177;-74
2022/05/29 05:26:53;;;;;;;1999.90;999.90;;;10.40;99.90;;;;;;5033124;28;20446;-74
2022/05/29 05:29:19;;;;;;;1999.90;999.90;;;10.40;99.90;;;;;;5033354;28;20453;-74
2022/05/29 05:31:45;;;;;;;1999.90;999.90;;;10.40;99.90;;;;;;5033227;28;20403;-74
2022/05/29 05:34:10;;;;;;;1999.90;999.90;;;10.40;99.90;;;;;;5032182;28;20194;-75
2022/05/29 05:36:36;;;;;;;1999.90;999.90;;;10.60;99.90;;;;;;5033056;28;20910;-74
2022/05/29 05:39:02;;;;;;;1999.90;999.90;;;10.60;99.90;;;;;;5033116;28;20163;-75
2022/05/29 05:41:28;;;;;;;1999.90;999.90;;;10.60;99.90;;;;;;5033161;28;20530;-75
2022/05/29 05:43:54;;;;;;;1999.90;999.90;;;10.60;99.90;;;;;;5032899;28;20457;-75
2022/05/29 05:46:19;;;;;;;1999.90;999.90;;;10.60;99.90;;;;;;5032778;28;20165;-74
2022/05/29 05:48:45;;;;;;;1999.90;999.90;;;10.60;99.90;;;;;;5032836;28;20182;-75
2022/05/29 05:51:12;;;;;;;1999.90;999.90;;;10.60;99.90;;;;;;5032851;28;20184;-75
2022/05/29 05:53:38;;;;;;;1999.90;999.90;;;10.60;99.90;;;;;;5032841;28;20170;-75
2022/05/29 05:56:13;;;;;;;1999.90;999.90;;;10.70;99.90;;;;;;5032539;28;20769;-75
2022/05/29 05:58:40;;;;;;;1999.90;999.90;;;10.70;99.90;;;;;;5032690;28;20433;-74
2022/05/29 06:01:13;;;;;;;1999.90;999.90;;;10.90;99.90;;;;;;5032680;28;20464;-74
2022/05/29 06:03:39;;;;;;;1999.90;999.90;;;11.10;99.90;;;;;;5032573;28;20454;-74
2022/05/29 06:06:05;;;;;;;1999.90;999.90;;;11.10;99.90;;;;;;5032508;28;20849;-74
2022/05/29 06:08:31;;;;;;;1999.90;999.90;;;11.20;99.90;;;;;;5014822;28;20741;-74
2022/05/29 06:10:56;;;;;;;1999.90;999.90;;;11.40;99.90;;;;;;5032571;28;20439;-74
2022/05/29 06:13:22;;;;;;;1999.90;999.90;;;11.40;99.90;;;;;;5032386;28;20545;-74
2022/05/29 06:15:48;;;;;;;1999.90;999.90;;;11.50;99.90;;;;;;5032276;28;20172;-74
2022/05/29 06:18:15;;;;;;;1999.90;999.90;;;11.60;99.90;;;;;;5032233;28;20449;-74
2022/05/29 06:20:41;;;;;;;1999.90;999.90;;;11.60;99.90;;;;;;5032369;28;20251;-74
2022/05/29 06:23:07;;;;;;;1999.90;999.90;;;11.60;99.90;;;;;;5032264;28;20454;-74
2022/05/29 06:25:33;;;;;;;1999.90;999.90;;;11.70;99.90;;;;;;5032041;28;20479;-74
2022/05/29 06:28:01;;;;;;;1999.90;999.90;;;11.80;99.90;;;;;;5032056;28;20513;-75
2022/05/29 06:30:28;;;;;;;1999.90;999.90;;;12.00;99.90;;;;;;5032225;28;20567;-75
2022/05/29 06:32:54;;;;;;;1999.90;999.90;;;12.10;99.90;;;;;;5032135;28;20412;-74
2022/05/29 06:35:20;;;;;;;1999.90;999.90;;;12.20;99.90;;;;;;5031876;28;20995;-73
2022/05/29 06:37:45;;;;;;;1999.90;999.90;;;12.20;99.90;;;;;;5032044;28;20800;-74
2022/05/29 06:40:12;;;;;;;1999.90;999.90;;;12.30;99.90;;;;;;5032071;28;20410;-75
2022/05/29 06:42:38;;;;;;;1999.90;999.90;;;12.10;99.90;;;;;;5032044;28;20213;-74
2022/05/29 06:45:05;;;;;;;1999.90;999.90;;;12.10;99.90;;;;;;5031557;28;20897;-75
2022/05/29 06:47:32;;;;;;;1999.90;999.90;;;12.10;99.90;;;;;;5031867;28;20188;-75
2022/05/29 06:49:59;;;;;;;1999.90;999.90;;;12.20;99.90;;;;;;5032004;28;20403;-74
2022/05/29 06:52:29;;;;;;;1999.90;999.90;;;12.30;99.90;;;;;;5031938;28;20434;-74
2022/05/29 06:54:55;;;;;;;1999.90;999.90;;;12.40;99.90;;;;;;5014005;28;20450;-74
2022/05/29 06:57:36;;;;;;;1999.90;999.90;;;12.20;99.90;;;;;;5031777;28;20971;-74
2022/05/29 07:08:30;;;;;;;1999.90;999.90;;;11.80;99.90;;;;;;5032338;28;20421;-74
2022/05/29 07:11:00;;;;;;;1999.90;999.90;;;11.70;99.90;;;;;;5032125;28;20427;-74
2022/05/29 07:13:27;;;;;;;1999.90;999.90;;;11.60;99.90;;;;;;5031924;28;20414;-74
2022/05/29 07:15:53;;;;;;;1999.90;999.90;;;11.70;99.90;;;;;;5031753;28;20413;-74
2022/05/29 07:18:18;;;;;;;1999.90;999.90;;;11.70;99.90;;;;;;5032052;28;20517;-74
2022/05/29 07:20:44;;;;;;;1999.90;999.90;;;11.70;99.90;;;;;;5032169;28;20681;-74
2022/05/29 07:23:09;;;;;;;1999.90;999.90;;;11.70;99.90;;;;;;5032076;28;20192;-74
2022/05/29 07:25:35;;;;;;;1999.90;999.90;;;11.80;99.90;;;;;;5031688;28;20233;-74
2022/05/29 07:28:01;;;;;;;1999.90;999.90;;;11.80;99.90;;;;;;5031411;28;20647;-74
2022/05/29 07:30:27;;;;;;;1999.90;999.90;;;11.90;99.90;;;;;;5031644;28;20169;-74
2022/05/29 07:32:52;;;;;;;1999.90;999.90;;;11.90;99.90;;;;;;5013828;28;20777;-74
2022/05/29 07:35:18;;;;;;;1999.90;999.90;;;12.00;99.90;;;;;;5031262;28;20172;-74
2022/05/29 07:37:44;;;;;;;1999.90;999.90;;;11.90;99.90;;;;;;5031533;28;20275;-75
2022/05/29 07:40:10;;;;;;;1999.90;999.90;;;12.00;99.90;;;;;;5031774;28;20168;-74
2022/05/29 07:45:20;;;;;;;1999.90;999.90;;;12.00;99.90;;;;;;5031526;28;20434;-74
2022/05/29 07:47:46;;;;;;;1999.90;999.90;;;12.00;99.90;;;;;;5031704;28;20454;-74
2022/05/29 07:50:18;;;;;;;1999.90;999.90;;;12.10;99.90;;;;;;5031644;28;20243;-74
2022/05/29 07:52:44;;;;;;;1999.90;999.90;;;12.10;99.90;;;;;;5031784;28;20474;-75
2022/05/29 07:55:11;;;;;;;1999.90;999.90;;;12.00;99.90;;;;;;5031525;28;20915;-74
2022/05/29 07:57:36;;;;;;;1999.90;999.90;;;12.10;99.90;;;;;;5035023;28;20427;-74
2022/05/29 08:00:08;;;;;;;1999.90;999.90;;;12.20;99.90;;;;;;5035228;28;20919;-74
2022/05/29 08:02:34;;;;;;;1999.90;999.90;;;12.30;99.90;;;;;;5035125;28;20180;-74
2022/05/29 08:05:02;;;;;;;1999.90;999.90;;;12.40;99.90;;;;;;5034778;28;20410;-75
2022/05/29 08:07:28;;;;;;;1999.90;999.90;;;12.20;99.90;;;;;;5034936;28;20998;-74
2022/05/29 08:09:54;;;;;;;1999.90;999.90;;;12.20;99.90;;;;;;5035147;28;20411;-74
2022/05/29 08:12:20;;;;;;;1999.90;999.90;;;12.20;99.90;;;;;;5034964;28;20765;-74
2022/05/29 08:14:45;;;;;;;1999.90;999.90;;;12.20;99.90;;;;;;5034635;28;20183;-74
2022/05/29 08:17:11;;;;;;;1999.90;999.90;;;12.30;99.90;;;;;;5034967;28;20196;-74
2022/05/29 08:19:38;;;;;;;1999.90;999.90;;;12.50;99.90;;;;;;5034842;28;20561;-74
2022/05/29 08:22:04;;;;;;;1999.90;999.90;;;12.40;99.90;;;;;;5034537;28;20198;-73
2022/05/29 08:32:59;;;;;;;1999.90;999.90;;;12.60;99.90;;;;;;5034435;28;20490;-74
2022/05/29 08:35:24;;;;;;;1999.90;999.90;;;12.70;99.90;;;;;;5034038;28;20502;-74
2022/05/29 08:37:50;;;;;;;1999.90;999.90;;;13.00;99.90;;;;;;5034444;28;20297;-74
2022/05/29 08:40:16;;;;;;;1999.90;999.90;;;13.10;99.90;;;;;;5034243;28;20164;-74
2022/05/29 08:42:41;;;;;;;1999.90;999.90;;;13.10;99.90;;;;;;5034173;28;20195;-73
2022/05/29 08:45:12;;;;;;;1999.90;999.90;;;13.10;99.90;;;;;;5033872;28;20194;-74
2022/05/29 08:47:38;;;;;;;1999.90;999.90;;;13.10;99.90;;;;;;5034061;28;20667;-74
2022/05/29 08:50:05;;;;;;;1999.90;999.90;;;13.30;99.90;;;;;;5034050;28;20407;-74
2022/05/29 08:52:42;;;;;;;1999.90;999.90;;;13.50;99.90;;;;;;5034004;28;20412;-74
2022/05/29 08:55:15;;;;;;;1999.90;999.90;;;13.50;99.90;;;;;;5033730;28;20486;-74
2022/05/29 08:57:59;;;;;;;1999.90;999.90;;;13.40;99.90;;;;;;5033815;28;20447;-74
2022/05/29 09:00:47;;;;;;;1999.90;999.90;;;13.50;99.90;;;;;;5033828;28;20841;-74
2022/05/29 09:03:44;;;;;;;1999.90;999.90;;;13.60;99.90;;;;;;5033793;28;20450;-74
2022/05/29 09:06:14;;;;;;;1999.90;999.90;;;13.60;99.90;;;;;;5033620;28;20396;-74
2022/05/29 09:08:55;;;;;;;1999.90;999.90;;;13.50;99.90;;;;;;5032491;28;20431;-74
2022/05/29 09:11:31;;;;;;;1999.90;999.90;;;13.70;99.90;;;;;;5033757;28;20459;-74
2022/05/29 09:14:10;;;;;;;1999.90;999.90;;;14.00;99.90;;;;;;5033907;28;20408;-74
2022/05/29 09:16:45;;;;;;;1999.90;999.90;;;14.00;99.90;;;;;;5016051;28;20529;-74
2022/05/29 09:19:54;;;;;;;1999.90;999.90;;;14.30;99.90;;;;;;5033957;28;20409;-74
2022/05/29 09:22:30;;;;;;;1999.90;999.90;;;14.40;99.90;;;;;;5033419;28;20453;-74
2022/05/29 09:25:05;;;;;;;1999.90;999.90;;;14.40;99.90;;;;;;5033484;28;20412;-74
2022/05/29 09:27:32;;;;;;;1999.90;999.90;;;14.30;99.90;;;;;;5034217;28;20826;-74
2022/05/29 09:29:57;;;;;;;1999.90;999.90;;;14.80;99.90;;;;;;5033854;28;20764;-74
2022/05/29 09:32:28;;;;;;;1999.90;999.90;;;15.40;99.90;;;;;;5033582;28;20464;-74
2022/05/29 09:35:14;;;;;;;1999.90;999.90;;;15.80;99.90;;;;;;5033199;28;20213;-74
2022/05/29 09:38:14;;;;;;;1999.90;999.90;;;15.70;99.90;;;;;;5033309;28;20433;-73
2022/05/29 09:41:02;;;;;;;1999.90;999.90;;;15.40;99.90;;;;;;5033142;28;20444;-74
2022/05/29 09:43:29;;;;;;;1999.90;999.90;;;15.40;99.90;;;;;;5033005;28;20535;-74
2022/05/29 09:45:55;;;;;;;1999.90;999.90;;;15.70;99.90;;;;;;5032768;28;20409;-74
2022/05/29 09:51:15;;;;;;;1999.90;999.90;;;15.90;99.90;;;;;;5033258;28;20924;-74
2022/05/29 09:53:48;;;;;;;1999.90;999.90;;;15.80;99.90;;;;;;5032828;28;20407;-74
2022/05/29 09:56:22;;;;;;;1999.90;999.90;;;15.50;99.90;;;;;;5032675;28;20795;-74
2022/05/29 09:58:50;;;;;;;1999.90;999.90;;;15.30;99.90;;;;;;5032701;28;20427;-74
2022/05/29 10:01:36;;;;;;;1999.90;999.90;;;15.10;99.90;;;;;;5032934;28;20406;-74
2022/05/29 10:04:05;;;;;;;1999.90;999.90;;;14.90;99.90;;;;;;5032383;28;20987;-74
2022/05/29 10:06:32;;;;;;;1999.90;999.90;;;14.80;99.90;;;;;;5032543;28;20410;-74
2022/05/29 10:09:17;;;;;;;1999.90;999.90;;;14.50;99.90;;;;;;5032597;28;20930;-74
2022/05/29 10:11:48;;;;;;;1999.90;999.90;;;14.30;99.90;;;;;;5032526;28;20405;-74
2022/05/29 10:14:20;;;;;;;1999.90;999.90;;;14.00;99.90;;;;;;5032506;28;20403;-73
2022/05/29 10:16:47;;;;;;;1999.90;999.90;;;14.00;99.90;;;;;;5032344;28;20917;-74
2022/05/29 10:19:29;;;;;;;1999.90;999.90;;;13.80;99.90;;;;;;5032127;28;20404;-74
2022/05/29 10:21:55;;;;;;;1999.90;999.90;;;13.70;99.90;;;;;;5032254;28;20480;-74
2022/05/29 10:24:37;;;;;;;1999.90;999.90;;;13.50;99.90;;;;;;5032050;28;20843;-73
2022/05/29 10:27:32;;;;;;;1999.90;999.90;;;13.30;99.90;;;;;;5032437;28;20685;-73
2022/05/29 10:30:03;;;;;;;1999.90;999.90;;;13.10;99.90;;;;;;5029088;28;20505;-74
2022/05/29 10:32:31;;;;;;;1999.90;999.90;;;13.10;99.90;;;;;;5032203;28;20395;-74
2022/05/29 10:35:26;;;;;;;1999.90;999.90;;;13.30;99.90;;;;;;5031949;28;20483;-74
2022/05/29 10:37:53;;;;;;;1999.90;999.90;;;13.50;99.90;;;;;;5009891;28;20829;-74
2022/05/29 10:40:34;;;;;;;1999.90;999.90;;;13.60;99.90;;;;;;5032124;28;20915;-75
2022/05/29 10:43:04;;;;;;;1999.90;999.90;;;13.80;99.90;;;;;;5032097;28;20994;-74
2022/05/29 10:45:43;;;;;;;1999.90;999.90;;;13.90;99.90;;;;;;5031962;28;20406;-74
2022/05/29 10:48:32;;;;;;;1999.90;999.90;;;13.80;99.90;;;;;;5032002;28;20420;-74
2022/05/29 10:51:28;;;;;;;1999.90;999.90;;;13.60;99.90;;;;;;5031931;28;20440;-74
2022/05/29 10:54:10;;;;;;;1999.90;999.90;;;13.30;99.90;;;;;;5005252;28;20407;-73
2022/05/29 10:56:45;;;;;;;1999.90;999.90;;;13.00;99.90;;;;;;5031916;28;20781;-74
2022/05/29 10:59:32;;;;;;;1999.90;999.90;;;12.90;99.90;;;;;;5031964;28;20913;-74
2022/05/29 11:05:26;;;;;;;1999.90;999.90;;;13.00;99.90;;;;;;5031704;28;20939;-74
2022/05/29 11:08:04;;;;;;;1999.90;999.90;;;13.00;99.90;;;;;;5031716;28;20490;-74
2022/05/29 11:11:05;;;;;;;1999.90;999.90;;;13.10;99.90;;;;;;5031866;28;20773;-74
2022/05/29 11:14:07;;;;;;;1999.90;999.90;;;13.00;99.90;;;;;;5031789;28;20400;-73
2022/05/29 11:16:45;;;;;;;1999.90;999.90;;;13.10;99.90;;;;;;5031900;28;20400;-74
2022/05/29 11:19:29;;;;;;;1999.90;999.90;;;13.20;99.90;;;;;;5031668;28;20415;-74
2022/05/29 11:22:20;;;;;;;1999.90;999.90;;;13.30;99.90;;;;;;5031564;28;20409;-74
2022/05/29 11:25:14;;;;;;;1999.90;999.90;;;13.50;99.90;;;;;;5031463;28;20421;-74
2022/05/29 11:28:05;;;;;;;1999.90;999.90;;;13.70;99.90;;;;;;5031464;28;21003;-74
2022/05/29 11:30:50;;;;;;;1999.90;999.90;;;13.80;99.90;;;;;;5031869;28;20406;-74
2022/05/29 11:33:26;;;;;;;1999.90;999.90;;;13.80;99.90;;;;;;5035536;28;20411;-74
2022/05/29 11:36:12;;;;;;;1999.90;999.90;;;13.70;99.90;;;;;;5035189;28;20912;-74
2022/05/29 11:39:05;;;;;;;1999.90;999.90;;;13.60;99.90;;;;;;5035364;28;20494;-74
2022/05/29 11:42:06;;;;;;;1999.90;999.90;;;13.60;99.90;;;;;;5035543;28;20403;-74
2022/05/29 11:44:44;;;;;;;1999.90;999.90;;;13.70;99.90;;;;;;5034625;28;20510;-74
2022/05/29 11:53:32;;;;;;;1999.90;999.90;;;14.30;99.90;;;;;;5035385;28;20531;-74
2022/05/29 11:56:03;;;;;;;1999.90;999.90;;;14.60;99.90;;;;;;5035041;28;20432;-74
2022/05/29 11:58:53;;;;;;;1999.90;999.90;;;14.80;99.90;;;;;;5035338;28;20420;-74
2022/05/29 12:01:39;;;;;;;1999.90;999.90;;;15.10;99.90;;;;;;5024708;28;20402;-74
2022/05/29 12:04:33;;;;;;;1999.90;999.90;;;15.50;99.90;;;;;;5034610;28;20453;-74
2022/05/29 12:07:29;;;;;;;1999.90;999.90;;;16.80;99.90;;;;;;5034941;28;20510;-74
2022/05/29 12:10:09;;;;;;;1999.90;999.90;;;18.00;99.90;;;;;;5029707;28;20421;-74
2022/05/29 12:12:43;;;;;;;1999.90;999.90;;;18.90;99.90;;;;;;5034924;28;20408;-74
2022/05/29 12:15:17;;;;;;;1999.90;999.90;;;19.90;99.90;;;;;;5034513;28;20971;-74
2022/05/29 12:17:51;;;;;;;1999.90;999.90;;;21.00;99.90;;;;;;5034685;28;20474;-74
2022/05/29 12:20:29;;;;;;;1999.90;999.90;;;22.10;99.90;;;;;;5035219;28;20414;-72
2022/05/29 12:22:58;;;;;;;1999.90;999.90;;;22.90;99.90;;;;;;5034509;28;20443;-72
2022/05/29 12:25:31;;;;;;;1999.90;999.90;;;23.40;99.90;;;;;;5034345;28;20389;-72
2022/05/29 12:28:01;;;;;;;1999.90;999.90;;;23.40;99.90;;;;;;5034284;28;20529;-72
2022/05/29 12:30:33;;;;;;;1999.90;999.90;;;23.60;99.90;;;;;;5034535;28;20782;-72
2022/05/29 12:33:08;;;;;;;1999.90;999.90;;;24.20;99.40;;;;;;5034380;28;20766;-72
2022/05/29 12:35:39;;;;;;;1999.90;999.90;;;24.80;96.60;;;;;;5034120;28;20402;-72
2022/05/29 12:38:26;;;;;;;1999.90;999.90;;;25.20;91.40;;;;;;5034272;28;20396;-72
2022/05/29 12:41:03;;;;;;;1999.90;999.90;;;25.20;93.50;;;;;;5034217;28;20395;-72
2022/05/29 12:44:00;;;;;;;1999.90;999.90;;;25.50;85.80;;;;;;5033807;28;20420;-72
2022/05/29 12:46:51;;;;;;;1999.90;999.90;;;26.10;72.30;;;;;;5034184;28;20424;-72
2022/05/29 12:49:38;;;;;;;1999.90;999.90;;;26.30;63.30;;;;;;5034178;28;20395;-72
2022/05/29 12:52:13;;;;;;;1999.90;999.90;;;26.40;62.40;;;;;;5034053;28;20369;-72
2022/05/29 12:54:56;;;;;;;1999.90;999.90;;;26.80;54.70;;;;;;5033800;28;20381;-72
2022/05/29 12:57:55;;;;;;;1999.90;999.90;;;26.20;51.10;;;;;;5034668;28;20987;-72
2022/05/29 13:00:45;;;;;;;1999.90;999.90;;;25.10;57.80;;;;;;5033866;28;20373;-72
2022/05/29 13:03:35;;;;;;;1999.90;999.90;;;23.60;60.10;;;;;;5033809;28;20427;-73
2022/05/29 13:06:26;;;;;;;1999.90;999.90;;;22.70;64.30;;;;;;5033611;28;20468;-71
2022/05/29 13:09:10;;;;;;;1999.90;999.90;;;22.10;68.40;;;;;;5033669;28;20491;-72
2022/05/29 13:11:45;;;;;;;1999.90;999.90;;;21.10;76.10;;;;;;5033758;28;20431;-72
2022/05/29 13:14:14;;;;;;;1999.90;999.90;;;20.20;88.80;;;;;;5033507;28;20435;-71